createdAt,value
2023-02-15T00:01:48.038Z,102228.38
2023-02-15T00:04:51.402Z,102225.69
2023-02-15T00:07:54.452Z,102226.78
2023-02-15T00:11:13.270Z,102231.81
2023-02-15T00:14:22.646Z,102231.69
2023-02-15T00:17:28.915Z,102237.81
2023-02-15T00:20:34.022Z,102237.53
2023-02-15T00:23:40.931Z,102244.63
2023-02-15T00:26:45.114Z,102247.44
2023-02-15T00:29:48.705Z,102237.53
2023-02-15T00:32:51.981Z,102235.19
2023-02-15T00:36:00.170Z,102245.53
2023-02-15T00:39:04.013Z,102241.16
2023-02-15T00:42:07.348Z,102239.38
2023-02-15T00:45:13.734Z,102238.00
2023-02-15T00:48:19.102Z,102238.66
2023-02-15T00:51:22.107Z,102232.78
2023-02-15T00:54:25.407Z,102237.47
2023-02-15T00:57:28.290Z,102232.53
2023-02-15T01:00:38.083Z,102222.72
2023-02-15T01:03:43.391Z,102233.66
2023-02-15T01:06:46.641Z,102228.62
2023-02-15T01:09:54.355Z,102230.72
2023-02-15T01:13:12.793Z,102241.91
2023-02-15T01:16:33.570Z,102231.31
2023-02-15T01:19:39.049Z,102225.31
2023-02-15T01:22:45.424Z,102226.87
2023-02-15T01:25:49.001Z,102230.06
2023-02-15T01:28:54.330Z,102231.09
2023-02-15T01:31:59.466Z,102225.41
2023-02-15T01:35:27.721Z,102224.91
2023-02-15T01:38:33.973Z,102220.22
2023-02-15T01:41:39.048Z,102224.31
2023-02-15T01:44:48.462Z,102220.22
2023-02-15T01:48:06.559Z,102204.69
2023-02-15T01:51:10.246Z,102206.56
2023-02-15T01:54:28.697Z,102205.88
2023-02-15T01:57:32.564Z,102202.59
2023-02-15T02:00:38.022Z,102204.69
2023-02-15T02:03:49.821Z,102205.19
2023-02-15T02:06:58.397Z,102200.34
2023-02-15T02:10:02.788Z,102198.56
2023-02-15T02:13:44.265Z,102202.22
2023-02-15T02:17:47.583Z,102201.94
2023-02-15T02:21:35.966Z,102203.69
2023-02-15T02:25:15.827Z,102199.91
2023-02-15T02:28:54.042Z,102194.47
2023-02-15T02:32:56.041Z,102203.37
2023-02-15T02:36:52.808Z,102203.88
2023-02-15T02:40:32.947Z,102198.31
2023-02-15T02:43:50.580Z,102205.06
2023-02-15T02:47:25.422Z,102194.72
2023-02-15T02:51:01.171Z,102199.19
2023-02-15T02:54:18.966Z,102197.28
2023-02-15T02:57:41.222Z,102201.12
2023-02-15T03:01:14.096Z,102196.97
2023-02-15T03:04:36.878Z,102208.38
2023-02-15T03:08:23.053Z,102208.38
2023-02-15T03:11:40.056Z,102207.75
2023-02-15T03:15:08.479Z,102206.81
2023-02-15T03:18:53.863Z,102213.53
2023-02-15T03:22:26.547Z,102201.53
2023-02-15T03:26:00.042Z,102199.72
2023-02-15T03:29:23.401Z,102207.91
2023-02-15T03:32:42.439Z,102207.81
2023-02-15T03:36:12.666Z,102210.16
2023-02-15T03:39:56.934Z,102218.59
2023-02-15T03:43:23.856Z,102225.72
2023-02-15T03:46:53.600Z,102218.62
2023-02-15T03:50:37.896Z,102218.94
2023-02-15T03:53:58.349Z,102217.72
2023-02-15T03:57:56.503Z,102217.00
2023-02-15T04:01:44.733Z,102217.06
2023-02-15T04:05:05.100Z,102210.34
2023-02-15T04:08:58.743Z,102217.38
2023-02-15T04:12:20.970Z,102216.97
2023-02-15T04:16:05.606Z,102219.25
2023-02-15T04:19:40.678Z,102217.31
2023-02-15T04:23:18.620Z,102214.06
2023-02-15T04:26:35.705Z,102210.28
2023-02-15T04:29:52.596Z,102206.03
2023-02-15T04:33:28.654Z,102208.63
2023-02-15T04:36:51.287Z,102211.97
2023-02-15T04:40:10.729Z,102212.13
2023-02-15T04:43:45.188Z,102212.19
2023-02-15T04:47:02.857Z,102217.22
2023-02-15T04:50:38.268Z,102213.34
2023-02-15T04:53:58.020Z,102220.53
2023-02-15T04:57:33.590Z,102227.28
2023-02-15T05:01:04.828Z,102222.75
2023-02-15T05:04:37.250Z,102219.94
2023-02-15T05:07:55.020Z,102218.41
2023-02-15T05:11:12.740Z,102214.59
2023-02-15T05:14:47.449Z,102218.50
2023-02-15T05:18:23.481Z,102223.88
2023-02-15T05:21:40.827Z,102221.28
2023-02-15T05:25:30.197Z,102228.66
2023-02-15T05:28:47.527Z,102234.53
2023-02-15T05:32:05.539Z,102239.41
2023-02-15T05:35:38.237Z,102239.72
2023-02-15T05:39:14.223Z,102239.91
2023-02-15T05:42:34.289Z,102252.81
2023-02-15T05:45:56.950Z,102258.28
2023-02-15T05:49:32.449Z,102256.22
2023-02-15T05:53:07.653Z,102255.00
2023-02-15T05:56:28.235Z,102253.34
2023-02-15T06:00:07.995Z,102259.97
2023-02-15T06:03:29.770Z,102257.88
2023-02-15T06:07:05.953Z,102261.81
2023-02-15T06:10:28.198Z,102249.09
2023-02-15T06:13:48.499Z,102254.47
2023-02-15T06:17:23.060Z,102257.56
2023-02-15T06:20:45.576Z,102265.06
2023-02-15T06:24:20.089Z,102264.63
2023-02-15T06:27:55.850Z,102260.28
2023-02-15T06:31:31.876Z,102262.53
2023-02-15T06:34:50.550Z,102265.28
2023-02-15T06:38:10.089Z,102267.53
2023-02-15T06:41:27.711Z,102263.47
2023-02-15T06:44:47.023Z,102270.63
2023-02-15T06:48:20.164Z,102272.59
2023-02-15T06:51:37.754Z,102274.91
2023-02-15T06:55:08.693Z,102277.91
2023-02-15T06:58:46.955Z,102270.87
2023-02-15T07:02:19.145Z,102271.47
2023-02-15T07:05:49.039Z,102266.84
2023-02-15T07:09:28.858Z,102265.19
2023-02-15T07:13:08.865Z,102271.81
2023-02-15T07:16:41.179Z,102275.47
2023-02-15T07:20:03.920Z,102279.50
2023-02-15T07:23:26.640Z,102275.53
2023-02-15T07:27:03.292Z,102275.50
2023-02-15T07:30:38.792Z,102276.56
2023-02-15T07:33:58.534Z,102259.91
2023-02-15T07:37:31.188Z,102260.09
2023-02-15T07:41:08.351Z,102266.12
2023-02-15T07:44:35.545Z,102261.53
2023-02-15T07:48:08.671Z,102265.00
2023-02-15T07:51:35.525Z,102262.66
2023-02-15T07:55:15.809Z,102265.69
2023-02-15T07:58:53.106Z,102266.81
2023-02-15T08:02:17.501Z,102262.88
2023-02-15T08:05:50.652Z,102257.09
2023-02-15T08:09:09.853Z,102261.50
2023-02-15T08:12:32.204Z,102252.03
2023-02-15T08:16:05.953Z,102247.63
2023-02-15T08:19:38.890Z,102245.69
2023-02-15T08:23:11.167Z,102246.00
2023-02-15T08:26:33.516Z,102240.03
2023-02-15T08:30:09.678Z,102249.19
2023-02-15T08:33:31.650Z,102241.97
2023-02-15T08:37:07.323Z,102237.81
2023-02-15T08:40:25.294Z,102230.06
2023-02-15T08:44:03.020Z,102228.38
2023-02-15T08:47:20.683Z,102223.91
2023-02-15T08:50:47.613Z,102227.94
2023-02-15T08:54:22.796Z,102232.06
2023-02-15T08:57:45.976Z,102231.97
2023-02-15T09:01:23.945Z,102226.78
2023-02-15T09:04:56.593Z,102227.19
2023-02-15T09:08:29.930Z,102230.56
2023-02-15T09:12:03.639Z,102229.72
2023-02-15T09:15:36.293Z,102226.16
2023-02-15T09:19:09.661Z,102222.34
2023-02-15T09:22:42.284Z,102231.09
2023-02-15T09:26:21.159Z,102225.78
2023-02-15T09:29:47.638Z,102209.94
2023-02-15T09:33:27.088Z,102217.31
2023-02-15T09:36:54.811Z,102220.91
2023-02-15T09:40:24.661Z,102218.44
2023-02-15T09:44:14.702Z,102223.72
2023-02-15T09:48:13.602Z,102219.78
2023-02-15T09:52:16.123Z,102210.19
2023-02-15T09:56:21.028Z,102201.50
2023-02-15T10:00:14.598Z,102200.91
2023-02-15T10:04:08.726Z,102195.09
2023-02-15T10:07:44.639Z,102196.34
2023-02-15T10:11:24.748Z,102193.50
2023-02-15T10:15:25.138Z,102190.94
2023-02-15T10:19:10.690Z,102185.13
2023-02-15T10:23:20.403Z,102182.50
2023-02-15T10:27:03.990Z,102182.44
2023-02-15T10:30:46.129Z,102173.81
2023-02-15T10:34:38.649Z,102168.38
2023-02-15T10:38:16.012Z,102168.03
2023-02-15T10:42:10.950Z,102169.06
2023-02-15T10:46:06.234Z,102170.56
2023-02-15T10:50:01.282Z,102165.00
2023-02-15T10:54:05.383Z,102170.00
2023-02-15T10:58:03.543Z,102169.31
2023-02-15T11:01:58.644Z,102157.53
2023-02-15T11:06:01.757Z,102150.41
2023-02-15T11:09:40.375Z,102147.06
2023-02-15T11:13:19.677Z,102141.19
2023-02-15T11:17:32.072Z,102140.31
2023-02-15T11:21:22.997Z,102140.28
2023-02-15T11:24:48.040Z,102134.81
2023-02-15T11:28:44.281Z,102128.69
2023-02-15T11:32:24.813Z,102111.22
2023-02-15T11:36:33.671Z,102109.88
2023-02-15T11:40:29.559Z,102107.75
2023-02-15T11:44:40.574Z,102102.19
2023-02-15T11:48:18.919Z,102091.81
2023-02-15T11:52:06.222Z,102080.41
2023-02-15T11:55:40.896Z,102076.47
2023-02-15T11:59:22.887Z,102073.06
2023-02-15T12:02:59.533Z,102069.97
2023-02-15T12:06:42.401Z,102075.19
2023-02-15T12:10:36.026Z,102067.84
2023-02-15T12:14:12.976Z,102064.94
2023-02-15T12:17:57.828Z,102060.63
2023-02-15T12:21:40.980Z,102058.84
2023-02-15T12:25:27.445Z,102056.56
2023-02-15T12:29:03.299Z,102053.13
2023-02-15T12:32:50.166Z,102051.50
2023-02-15T12:36:31.195Z,102045.34
2023-02-15T12:40:31.685Z,102044.94
2023-02-15T12:44:07.489Z,102033.63
2023-02-15T12:47:39.824Z,102033.34
2023-02-15T12:51:20.791Z,102020.34
2023-02-15T12:55:23.583Z,102024.19
2023-02-15T12:59:06.308Z,102027.31
2023-02-15T13:02:47.450Z,102001.84
2023-02-15T13:06:21.910Z,102007.06
2023-02-15T13:09:54.724Z,101996.16
2023-02-15T13:13:44.042Z,101999.25
2023-02-15T13:17:11.018Z,101990.09
2023-02-15T13:21:01.625Z,101982.78
2023-02-15T13:25:01.800Z,101982.78
2023-02-15T13:29:09.751Z,101979.31
2023-02-15T13:32:41.895Z,101978.66
2023-02-15T13:36:21.449Z,101976.97
2023-02-15T13:40:00.403Z,101971.25
2023-02-15T13:43:59.577Z,101974.59
2023-02-15T13:47:47.699Z,101971.19
2023-02-15T13:52:17.376Z,101961.44
2023-02-15T13:56:07.444Z,101969.56
2023-02-15T13:59:50.244Z,101963.62
2023-02-15T14:03:49.435Z,101962.84
2023-02-15T14:07:43.312Z,101957.53
2023-02-15T14:11:24.933Z,101957.16
2023-02-15T14:15:35.081Z,101962.06
2023-02-15T14:19:17.572Z,101960.00
2023-02-15T14:23:02.359Z,101957.34
2023-02-15T14:27:12.101Z,101959.59
2023-02-15T14:30:41.734Z,101953.91
2023-02-15T14:34:31.343Z,101957.75
2023-02-15T14:38:22.757Z,101963.84
2023-02-15T14:42:03.590Z,101970.53
2023-02-15T14:46:01.791Z,101965.72
2023-02-15T14:49:41.120Z,101961.84
2023-02-15T14:53:36.904Z,101963.69
2023-02-15T14:57:15.873Z,101957.62
2023-02-15T15:00:49.261Z,101956.16
2023-02-15T15:04:14.593Z,101959.25
2023-02-15T15:08:00.239Z,101958.87
2023-02-15T15:11:50.438Z,101950.09
2023-02-15T15:15:29.650Z,101952.88
2023-02-15T15:19:11.871Z,101940.06
2023-02-15T15:22:51.142Z,101950.69
2023-02-15T15:26:41.848Z,101945.63
2023-02-15T15:30:20.294Z,101939.38
2023-02-15T15:34:41.202Z,101942.03
2023-02-15T15:38:38.484Z,101937.81
2023-02-15T15:42:37.560Z,101934.25
2023-02-15T15:46:47.214Z,101944.59
2023-02-15T15:50:23.902Z,101935.69
2023-02-15T15:53:59.118Z,101938.72
2023-02-15T15:57:45.394Z,101940.34
2023-02-15T16:01:27.228Z,101940.19
2023-02-15T16:05:10.125Z,101931.75
2023-02-15T16:08:47.763Z,101931.19
2023-02-15T16:12:23.693Z,101925.22
2023-02-15T16:16:00.892Z,101932.84
2023-02-15T16:19:45.456Z,101926.34
2023-02-15T16:23:27.235Z,101932.44
2023-02-15T16:27:19.161Z,101933.94
2023-02-15T16:31:15.579Z,101938.19
2023-02-15T16:35:03.019Z,101942.56
2023-02-15T16:38:45.597Z,101947.41
2023-02-15T16:42:19.629Z,101940.81
2023-02-15T16:46:04.433Z,101941.72
2023-02-15T16:49:46.576Z,101949.94
2023-02-15T16:53:27.966Z,101948.91
2023-02-15T16:57:05.370Z,101954.00
2023-02-15T17:00:44.589Z,101947.19
2023-02-15T17:04:24.301Z,101953.94
2023-02-15T17:08:03.338Z,101954.97
2023-02-15T17:11:45.392Z,101951.94
2023-02-15T17:15:33.347Z,101952.00
2023-02-15T17:19:17.648Z,101954.19
2023-02-15T17:23:01.322Z,101955.03
2023-02-15T17:26:39.239Z,101956.09
2023-02-15T17:30:41.698Z,101953.62
2023-02-15T17:34:43.113Z,101951.97
2023-02-15T17:38:21.839Z,101958.31
2023-02-15T17:41:54.665Z,101956.06
2023-02-15T17:45:34.831Z,101949.38
2023-02-15T17:49:29.731Z,101957.09
2023-02-15T17:53:04.605Z,101947.41
2023-02-15T17:56:41.201Z,101949.88
2023-02-15T18:00:35.238Z,101949.06
2023-02-15T18:04:34.698Z,101955.13
2023-02-15T18:08:30.555Z,101951.31
2023-02-15T18:15:48.905Z,101949.84
2023-02-15T18:19:26.216Z,101954.34
2023-02-15T18:23:06.731Z,101939.59
2023-02-15T18:26:39.893Z,101942.88
2023-02-15T18:30:22.448Z,101942.34
2023-02-15T18:33:36.672Z,101944.78
2023-02-15T18:37:06.052Z,101943.31
2023-02-15T18:40:22.584Z,101942.34
2023-02-15T18:43:25.451Z,101955.47
2023-02-15T18:46:35.035Z,101948.75
2023-02-15T18:50:20.276Z,101949.97
2023-02-15T18:53:25.108Z,101954.91
2023-02-15T18:56:57.341Z,101951.06
2023-02-15T19:00:01.216Z,101949.13
2023-02-15T19:03:08.579Z,101945.03
2023-02-15T19:06:15.696Z,101947.09
2023-02-15T19:09:26.583Z,101946.38
2023-02-15T19:12:34.136Z,101945.25
2023-02-15T19:15:45.718Z,101948.81
2023-02-15T19:18:49.728Z,101940.84
2023-02-15T19:21:57.327Z,101944.94
2023-02-15T19:25:33.978Z,101934.81
2023-02-15T19:28:37.853Z,101943.81
2023-02-15T19:31:43.478Z,101947.22
2023-02-15T19:34:48.890Z,101938.03
2023-02-15T19:37:54.759Z,101938.31
2023-02-15T19:41:07.033Z,101942.09
2023-02-15T19:44:12.821Z,101936.09
2023-02-15T19:47:18.482Z,101939.34
2023-02-15T19:50:29.506Z,101941.44
2023-02-15T19:53:35.603Z,101944.16
2023-02-15T19:56:42.377Z,101938.91
2023-02-15T19:59:46.687Z,101936.69
2023-02-15T20:02:53.115Z,101940.62
2023-02-15T20:06:05.602Z,101944.72
2023-02-15T20:09:35.461Z,101939.19
2023-02-15T20:12:47.565Z,101940.53
2023-02-15T20:16:11.006Z,101941.41
2023-02-15T20:19:35.212Z,101945.87
2023-02-15T20:22:40.941Z,101937.81
2023-02-15T20:25:49.620Z,101938.31
2023-02-15T20:28:54.958Z,101932.56
2023-02-15T20:32:03.477Z,101934.78
2023-02-15T20:35:07.359Z,101931.53
2023-02-15T20:38:17.432Z,101929.41
2023-02-15T20:41:38.980Z,101927.31
2023-02-15T20:44:44.055Z,101923.47
2023-02-15T20:47:50.800Z,101923.56
2023-02-15T20:50:55.736Z,101927.25
2023-02-15T20:54:00.625Z,101923.62
2023-02-15T20:57:28.045Z,101930.78
2023-02-15T21:00:33.283Z,101924.09
2023-02-15T21:03:39.628Z,101922.69
2023-02-15T21:06:45.503Z,101926.22
2023-02-15T21:10:20.957Z,101920.44
2023-02-15T21:13:33.039Z,101929.91
2023-02-15T21:16:40.821Z,101932.75
2023-02-15T21:19:44.014Z,101929.81
2023-02-15T21:22:49.506Z,101930.66
2023-02-15T21:25:56.696Z,101930.91
2023-02-15T21:29:03.928Z,101935.66
2023-02-15T21:32:10.955Z,101925.66
2023-02-15T21:35:18.139Z,101923.62
2023-02-15T21:38:31.329Z,101928.09
2023-02-15T21:42:34.910Z,101918.63
2023-02-15T21:45:56.639Z,101925.50
2023-02-15T21:49:04.357Z,101923.19
2023-02-15T21:52:12.681Z,101917.53
2023-02-15T21:55:19.838Z,101921.78
2023-02-15T21:58:27.429Z,101914.84
2023-02-15T22:01:34.191Z,101918.81
2023-02-15T22:04:37.159Z,101923.34
2023-02-15T22:07:42.482Z,101917.28
2023-02-15T22:10:49.997Z,101913.62
2023-02-15T22:13:55.253Z,101921.34
2023-02-15T22:17:01.888Z,101915.66
2023-02-15T22:20:21.871Z,101914.13
2023-02-15T22:23:25.745Z,101920.41
2023-02-15T22:26:29.168Z,101920.25
2023-02-15T22:29:33.285Z,101923.22
2023-02-15T22:32:57.905Z,101925.25
2023-02-15T22:36:03.943Z,101925.63
2023-02-15T22:39:07.521Z,101925.03
2023-02-15T22:42:21.338Z,101925.16
2023-02-15T22:45:25.570Z,101928.56
2023-02-15T22:48:29.294Z,101934.34
2023-02-15T22:51:42.292Z,101928.69
2023-02-15T22:54:46.398Z,101929.41
2023-02-15T22:57:52.000Z,101933.69
2023-02-15T23:00:54.967Z,101937.44
2023-02-15T23:03:58.086Z,101929.94
2023-02-15T23:07:12.101Z,101934.72
2023-02-15T23:10:21.280Z,101931.66
2023-02-15T23:13:31.227Z,101931.91
2023-02-15T23:16:37.391Z,101930.97
2023-02-15T23:19:40.464Z,101930.41
2023-02-15T23:22:46.388Z,101932.53
2023-02-15T23:25:49.281Z,101920.53
2023-02-15T23:28:57.318Z,101929.00
2023-02-15T23:32:00.585Z,101923.34
2023-02-15T23:35:18.080Z,101925.91
2023-02-15T23:38:26.699Z,101922.28
2023-02-15T23:41:33.385Z,101919.13
2023-02-15T23:44:36.692Z,101911.94
2023-02-15T23:48:01.417Z,101912.56
2023-02-15T23:51:06.650Z,101912.09
2023-02-15T23:54:09.691Z,101908.22
2023-02-15T23:57:23.946Z,101909.25
